Time;durP1;ratioP1;P1;durP2;ratioP2;P2;SDS_P1;SDS_P2;PMS_P1;PMS_P2;Temp;Humidity;BMP_temperature;BMP_pressure;BME280_temperature;BME280_humidity;BME280_pressure;Samples;Min_cycle;Max_cycle;Signal;HPM_P1;HPM_P2
2023/06/20 00:02:15;;;;;;;8.53;7.70;;;22.00;99.90;;;;;;4965026;28;20576;-71
2023/06/20 00:04:40;;;;;;;8.17;7.57;;;22.10;99.90;;;;;;4961699;28;20184;-71
2023/06/20 00:07:06;;;;;;;7.60;6.90;;;22.20;99.90;;;;;;4959899;28;20240;-71
2023/06/20 00:09:31;;;;;;;8.77;8.07;;;22.40;99.90;;;;;;4958244;28;20649;-71
2023/06/20 00:11:57;;;;;;;8.30;7.67;;;22.40;99.90;;;;;;4963886;28;20581;-71
2023/06/20 00:14:24;;;;;;;7.63;7.00;;;22.30;99.90;;;;;;4966796;28;20207;-71
2023/06/20 00:16:49;;;;;;;7.00;6.50;;;22.40;99.90;;;;;;4959925;28;20205;-71
2023/06/20 00:19:15;;;;;;;7.60;7.00;;;22.40;99.90;;;;;;4966401;28;20967;-72
2023/06/20 00:21:40;;;;;;;8.60;7.97;;;22.40;99.90;;;;;;4959617;28;20207;-71
2023/06/20 00:24:09;;;;;;;7.90;7.33;;;22.40;99.90;;;;;;4966060;28;20554;-71
2023/06/20 00:26:38;;;;;;;8.57;7.77;;;22.40;99.90;;;;;;4963910;28;20291;-71
2023/06/20 00:29:04;;;;;;;7.30;6.80;;;22.50;99.90;;;;;;4967923;28;20452;-71
2023/06/20 00:31:29;;;;;;;7.40;6.80;;;22.70;99.90;;;;;;4963323;28;20470;-71
2023/06/20 00:33:55;;;;;;;7.50;6.80;;;22.80;99.90;;;;;;4961976;28;20463;-71
2023/06/20 00:36:25;;;;;;;7.40;6.70;;;22.80;99.90;;;;;;4966046;28;20212;-71
2023/06/20 00:38:51;;;;;;;8.10;7.00;;;22.90;99.90;;;;;;4963491;28;20691;-71
2023/06/20 00:41:20;;;;;;;7.17;6.60;;;23.00;99.90;;;;;;4961279;28;20503;-72
2023/06/20 00:43:49;;;;;;;6.80;6.20;;;23.00;99.90;;;;;;4960321;28;20439;-71
2023/06/20 00:46:23;;;;;;;7.43;6.83;;;23.00;99.90;;;;;;4957986;28;20443;-71
2023/06/20 00:48:49;;;;;;;7.40;6.70;;;22.70;99.90;;;;;;4962054;28;20451;-71
2023/06/20 00:51:16;;;;;;;8.30;7.50;;;22.50;99.90;;;;;;4959022;28;20480;-71
2023/06/20 00:53:42;;;;;;;10.17;8.13;;;22.30;99.90;;;;;;4963691;28;20462;-71
2023/06/20 00:56:11;;;;;;;8.57;7.87;;;22.10;99.90;;;;;;4959817;28;20557;-71
2023/06/20 00:58:37;;;;;;;9.83;8.83;;;21.90;99.90;;;;;;4964045;28;20969;-72
2023/06/20 01:01:03;;;;;;;9.00;8.27;;;21.80;99.90;;;;;;4960999;28;21062;-71
2023/06/20 01:03:31;;;;;;;8.47;7.67;;;21.60;99.90;;;;;;4960824;28;20251;-72
2023/06/20 01:09:55;;;;;;;9.20;8.40;;;21.30;99.90;;;;;;4955033;28;20236;-71
2023/06/20 01:12:28;;;;;;;8.52;7.82;;;21.10;99.90;;;;;;4957613;28;20256;-70
2023/06/20 01:15:24;;;;;;;8.40;7.68;;;20.90;99.90;;;;;;4968755;28;20211;-74
2023/06/20 01:18:15;;;;;;;8.77;7.97;;;20.90;99.90;;;;;;4960970;28;20205;-74
2023/06/20 01:20:53;;;;;;;8.75;7.80;;;20.70;99.90;;;;;;4962766;28;20206;-72
2023/06/20 01:23:19;;;;;;;8.60;7.82;;;20.60;99.90;;;;;;4964484;28;20235;-74
2023/06/20 01:26:07;;;;;;;8.27;7.50;;;20.50;99.90;;;;;;4963621;28;20192;-74
2023/06/20 01:28:41;;;;;;;8.13;7.43;;;20.50;99.90;;;;;;4966039;28;20188;-71
2023/06/20 01:31:12;;;;;;;8.05;7.40;;;20.40;99.90;;;;;;4965544;28;20192;-71
2023/06/20 01:33:58;;;;;;;8.32;7.40;;;20.40;99.90;;;;;;4961804;28;20191;-74
2023/06/20 01:36:32;;;;;;;6.57;6.07;;;20.30;99.90;;;;;;4962256;28;20227;-74
2023/06/20 01:39:02;;;;;;;6.53;6.00;;;20.30;99.90;;;;;;4958019;28;20247;-73
2023/06/20 01:41:31;;;;;;;6.60;6.00;;;20.30;99.90;;;;;;4964497;28;20208;-73
2023/06/20 01:43:59;;;;;;;6.03;5.47;;;20.20;99.90;;;;;;4964219;28;20184;-73
2023/06/20 01:46:26;;;;;;;6.32;5.82;;;20.20;99.90;;;;;;4965179;28;20192;-74
2023/06/20 01:48:53;;;;;;;7.13;6.63;;;20.20;99.90;;;;;;4967182;28;20184;-72
2023/06/20 01:51:20;;;;;;;6.50;5.90;;;20.20;99.90;;;;;;4964141;28;20207;-72
2023/06/20 01:53:47;;;;;;;6.90;6.30;;;20.20;99.90;;;;;;4958716;28;20196;-73
2023/06/20 01:56:13;;;;;;;6.88;6.28;;;20.20;99.90;;;;;;4966898;28;20201;-72
2023/06/20 01:58:42;;;;;;;7.15;6.53;;;19.30;99.90;;;;;;4959220;28;20276;-71
2023/06/20 02:01:09;;;;;;;7.38;6.75;;;20.30;99.90;;;;;;4959580;28;20208;-74
2023/06/20 02:03:35;;;;;;;6.38;5.88;;;20.30;99.90;;;;;;4959985;28;20185;-73
2023/06/20 02:06:02;;;;;;;6.93;6.32;;;20.30;99.90;;;;;;4961305;28;20193;-73
2023/06/20 02:08:30;;;;;;;9.27;5.93;;;20.30;99.90;;;;;;4961316;28;20257;-73
2023/06/20 02:10:56;;;;;;;6.38;5.78;;;20.30;99.90;;;;;;4962428;28;20207;-73
2023/06/20 02:13:23;;;;;;;6.22;5.68;;;20.30;99.90;;;;;;4956605;28;20578;-72
2023/06/20 02:15:52;;;;;;;5.70;5.20;;;20.30;99.90;;;;;;4961918;28;20291;-73
2023/06/20 02:18:19;;;;;;;6.30;5.80;;;20.30;99.90;;;;;;4961629;28;20251;-70
2023/06/20 02:20:50;;;;;;;7.05;6.50;;;20.30;99.90;;;;;;4960328;28;20504;-73
2023/06/20 02:23:21;;;;;;;6.07;5.57;;;20.30;99.90;;;;;;4962297;28;20196;-73
2023/06/20 02:25:48;;;;;;;6.18;5.70;;;20.30;99.90;;;;;;4959209;28;20287;-72
2023/06/20 02:28:15;;;;;;;6.40;5.80;;;20.30;99.90;;;;;;4957076;28;20279;-72
2023/06/20 02:30:42;;;;;;;6.25;5.65;;;20.30;99.90;;;;;;4964189;28;20189;-72
2023/06/20 02:33:10;;;;;;;6.18;5.70;;;21.60;99.90;;;;;;4961225;28;20270;-72
2023/06/20 02:35:37;;;;;;;6.47;5.57;;;20.30;99.90;;;;;;4962749;28;20304;-71
2023/06/20 02:38:04;;;;;;;6.30;5.70;;;20.30;99.90;;;;;;4953485;28;20189;-72
2023/06/20 02:40:29;;;;;;;6.25;5.65;;;20.30;99.90;;;;;;4954168;28;20551;-72
2023/06/20 02:42:55;;;;;;;6.03;5.53;;;20.30;99.90;;;;;;4959826;28;20724;-72
2023/06/20 02:45:21;;;;;;;9.63;6.10;;;20.30;99.90;;;;;;4959605;28;20218;-72
2023/06/20 02:48:24;;;;;;;6.50;5.90;;;20.30;99.90;;;;;;4961404;28;20180;-72
2023/06/20 02:51:04;;;;;;;6.65;5.78;;;20.20;99.90;;;;;;4953710;28;20201;-72
2023/06/20 02:53:39;;;;;;;6.60;6.03;;;20.20;99.90;;;;;;4954466;28;20218;-72
2023/06/20 02:56:12;;;;;;;7.05;6.55;;;20.20;99.90;;;;;;4959305;28;20211;-72
2023/06/20 02:58:41;;;;;;;6.70;6.05;;;20.10;99.90;;;;;;4972717;28;20200;-72
2023/06/20 03:01:08;;;;;;;5.97;5.57;;;20.10;99.90;;;;;;4955169;28;20209;-72
2023/06/20 03:03:36;;;;;;;6.22;5.72;;;20.20;99.90;;;;;;4954915;28;20192;-72
2023/06/20 03:06:06;;;;;;;6.57;6.03;;;20.20;99.90;;;;;;4956795;28;20190;-72
2023/06/20 03:08:32;;;;;;;6.25;5.75;;;20.20;99.90;;;;;;4960199;28;20196;-72
2023/06/20 03:10:59;;;;;;;7.65;6.85;;;20.20;99.90;;;;;;4960918;28;20701;-72
2023/06/20 03:13:25;;;;;;;6.50;5.90;;;20.10;99.90;;;;;;4962202;28;20325;-72
2023/06/20 03:15:51;;;;;;;7.20;6.60;;;20.00;99.90;;;;;;4961166;28;20831;-72
2023/06/20 03:18:18;;;;;;;8.00;7.20;;;20.00;99.90;;;;;;4957178;28;20268;-75
2023/06/20 03:20:44;;;;;;;7.55;6.80;;;19.90;99.90;;;;;;4954490;28;20591;-75
2023/06/20 03:23:10;;;;;;;8.07;7.35;;;19.80;99.90;;;;;;4965473;28;20211;-73
2023/06/20 03:25:36;;;;;;;7.03;6.43;;;19.80;99.90;;;;;;4961922;28;20204;-77
2023/06/20 03:28:01;;;;;;;6.53;6.03;;;19.80;99.90;;;;;;4964933;28;20247;-73
2023/06/20 03:30:27;;;;;;;8.10;7.13;;;19.70;99.90;;;;;;4962255;28;20664;-73
2023/06/20 03:32:52;;;;;;;7.40;6.80;;;19.70;99.90;;;;;;4963711;28;20200;-77
2023/06/20 03:35:18;;;;;;;6.90;6.20;;;19.60;99.90;;;;;;4965478;28;20199;-73
2023/06/20 03:37:43;;;;;;;6.33;5.83;;;19.60;99.90;;;;;;4961750;28;20275;-73
2023/06/20 03:40:09;;;;;;;8.73;7.33;;;19.50;99.90;;;;;;4965205;28;20191;-77
2023/06/20 03:42:35;;;;;;;7.65;6.95;;;19.60;99.90;;;;;;4963259;28;20330;-74
2023/06/20 03:45:01;;;;;;;6.03;5.53;;;19.50;99.90;;;;;;4960336;28;20177;-73
2023/06/20 03:47:26;;;;;;;6.93;6.37;;;19.50;99.90;;;;;;4963448;28;20230;-73
2023/06/20 03:49:52;;;;;;;6.63;5.93;;;19.40;99.90;;;;;;4963206;28;20196;-72
2023/06/20 03:52:17;;;;;;;6.80;6.20;;;19.50;99.90;;;;;;4963119;28;20311;-77
2023/06/20 03:54:43;;;;;;;8.13;7.40;;;19.50;99.90;;;;;;4963633;28;20839;-72
2023/06/20 03:57:08;;;;;;;7.53;6.67;;;19.60;99.90;;;;;;4965926;28;20216;-73
2023/06/20 03:59:34;;;;;;;7.70;7.00;;;20.00;99.90;;;;;;4960959;28;20182;-75
2023/06/20 04:01:59;;;;;;;7.00;6.40;;;19.90;99.90;;;;;;4963921;28;20200;-76
2023/06/20 04:04:25;;;;;;;7.80;7.00;;;19.70;99.90;;;;;;4959175;28;20204;-73
2023/06/20 04:06:51;;;;;;;7.30;6.00;;;19.80;99.90;;;;;;4966357;28;20196;-76
2023/06/20 04:09:17;;;;;;;6.90;6.40;;;19.80;99.90;;;;;;4956967;28;20221;-75
2023/06/20 04:11:44;;;;;;;6.95;6.38;;;19.80;99.90;;;;;;4968988;28;20204;-72
2023/06/20 04:14:09;;;;;;;6.40;5.90;;;19.80;99.90;;;;;;4964291;28;20211;-76
2023/06/20 04:16:36;;;;;;;7.40;6.80;;;20.30;99.90;;;;;;4962519;28;20303;-73
2023/06/20 04:19:02;;;;;;;8.00;7.30;;;19.90;99.90;;;;;;4962961;28;20180;-73
2023/06/20 04:21:29;;;;;;;9.23;6.70;;;19.90;99.90;;;;;;4965965;28;20201;-79
2023/06/20 04:23:55;;;;;;;7.25;6.57;;;20.00;99.90;;;;;;4965801;28;20185;-72
2023/06/20 04:26:20;;;;;;;7.80;7.20;;;20.00;99.90;;;;;;4962969;28;20210;-73
2023/06/20 04:28:46;;;;;;;7.33;6.73;;;20.00;99.90;;;;;;4964732;28;20244;-78
2023/06/20 04:31:12;;;;;;;8.57;7.77;;;20.00;99.90;;;;;;4961876;28;20461;-66
2023/06/20 04:33:43;;;;;;;7.27;6.57;;;20.00;99.90;;;;;;4954603;28;20181;-66
2023/06/20 04:36:15;;;;;;;7.05;6.35;;;20.00;99.90;;;;;;4957281;28;20256;-66
2023/06/20 04:38:41;;;;;;;6.50;5.90;;;20.00;99.90;;;;;;4958579;28;20176;-66
2023/06/20 04:41:07;;;;;;;8.63;6.55;;;20.00;99.90;;;;;;4962121;28;20315;-67
2023/06/20 04:43:33;;;;;;;6.67;6.07;;;20.10;99.90;;;;;;4958882;28;20259;-65
2023/06/20 04:45:59;;;;;;;6.03;5.53;;;20.30;99.90;;;;;;4961309;28;21245;-63
2023/06/20 04:48:35;;;;;;;5.97;5.47;;;20.40;99.90;;;;;;4957600;28;20193;-63
2023/06/20 04:51:02;;;;;;;6.80;6.10;;;20.40;99.90;;;;;;4957222;28;20467;-66
2023/06/20 04:53:28;;;;;;;6.80;6.10;;;20.50;99.90;;;;;;4953556;28;20694;-64
2023/06/20 04:55:54;;;;;;;6.13;5.53;;;20.70;99.90;;;;;;4958682;28;20304;-64
2023/06/20 04:58:19;;;;;;;4.90;4.50;;;20.70;99.90;;;;;;4955389;28;20448;-64
2023/06/20 05:00:48;;;;;;;6.10;5.60;;;20.70;99.90;;;;;;4961540;28;20751;-65
2023/06/20 05:03:14;;;;;;;5.53;4.50;;;20.80;99.90;;;;;;4958652;28;20564;-64
2023/06/20 05:05:40;;;;;;;5.67;5.17;;;20.80;99.90;;;;;;4959825;28;20177;-63
2023/06/20 05:08:06;;;;;;;6.38;4.50;;;20.90;99.90;;;;;;4953676;28;20204;-63
2023/06/20 05:10:31;;;;;;;5.37;4.80;;;20.90;99.90;;;;;;4956422;28;20184;-63
2023/06/20 05:12:57;;;;;;;5.57;5.17;;;20.80;99.90;;;;;;4952120;28;20211;-63
2023/06/20 05:15:25;;;;;;;5.00;4.57;;;20.90;99.90;;;;;;4962196;28;20184;-63
2023/06/20 05:17:52;;;;;;;5.00;4.45;;;20.90;99.90;;;;;;4959720;28;20196;-64
2023/06/20 05:20:18;;;;;;;5.82;5.30;;;21.00;99.90;;;;;;4960824;28;20223;-65
2023/06/20 05:22:44;;;;;;;5.60;5.10;;;21.00;99.90;;;;;;4958864;28;20208;-68
2023/06/20 05:25:10;;;;;;;5.20;4.27;;;21.10;99.90;;;;;;4957396;28;20188;-66
2023/06/20 05:27:36;;;;;;;5.15;4.65;;;21.10;99.90;;;;;;4959431;28;20455;-67
2023/06/20 05:30:02;;;;;;;5.90;5.07;;;21.20;99.90;;;;;;4958582;28;20725;-68
2023/06/20 05:32:28;;;;;;;6.53;4.57;;;21.20;99.90;;;;;;4957018;28;20224;-68
2023/06/20 05:34:53;;;;;;;5.47;4.93;;;21.20;99.90;;;;;;4958448;28;20188;-67
2023/06/20 05:37:19;;;;;;;5.90;4.87;;;21.30;99.90;;;;;;4959391;28;20215;-67
2023/06/20 05:39:45;;;;;;;6.95;4.82;;;21.30;99.90;;;;;;4958573;28;20219;-67
2023/06/20 05:42:11;;;;;;;5.47;5.07;;;21.40;99.90;;;;;;4958235;28;20239;-66
2023/06/20 05:44:37;;;;;;;4.80;4.40;;;21.40;99.90;;;;;;4960230;28;20531;-66
2023/06/20 05:47:04;;;;;;;4.75;4.35;;;21.40;99.90;;;;;;4956492;28;20464;-66
2023/06/20 05:49:30;;;;;;;5.30;4.90;;;21.50;99.90;;;;;;4955766;28;20223;-67
2023/06/20 05:51:57;;;;;;;5.30;4.80;;;21.60;99.90;;;;;;4956156;28;20228;-67
2023/06/20 05:54:25;;;;;;;4.73;4.43;;;21.70;99.90;;;;;;4951870;28;20181;-67
2023/06/20 05:56:52;;;;;;;6.13;5.53;;;21.70;99.90;;;;;;4959424;28;20799;-68
2023/06/20 05:59:18;;;;;;;5.20;4.80;;;21.80;99.90;;;;;;4959376;28;20180;-68
2023/06/20 06:01:44;;;;;;;4.87;4.40;;;21.80;99.90;;;;;;4954429;28;20471;-67
2023/06/20 06:04:10;;;;;;;4.45;4.15;;;21.90;99.90;;;;;;4960104;28;20819;-69
2023/06/20 06:06:36;;;;;;;5.53;5.03;;;22.00;99.90;;;;;;4960473;28;20203;-67
2023/06/20 06:09:03;;;;;;;5.60;5.10;;;22.10;99.90;;;;;;4953250;28;20527;-66
2023/06/20 06:11:29;;;;;;;4.80;4.30;;;22.20;99.90;;;;;;4957881;28;20537;-66
2023/06/20 06:13:54;;;;;;;4.97;4.57;;;22.30;99.90;;;;;;4962526;28;20196;-68
2023/06/20 06:16:20;;;;;;;5.20;4.73;;;22.60;99.90;;;;;;4953755;28;21072;-68
2023/06/20 06:18:46;;;;;;;5.80;5.30;;;23.00;99.90;;;;;;4959912;28;20506;-68
2023/06/20 06:21:11;;;;;;;5.30;4.47;;;22.90;99.90;;;;;;4957434;28;20247;-71
2023/06/20 06:23:37;;;;;;;6.20;4.90;;;23.00;99.90;;;;;;4952231;28;20196;-69
2023/06/20 06:26:04;;;;;;;5.40;4.30;;;23.20;99.90;;;;;;4965101;28;20204;-71
2023/06/20 06:28:30;;;;;;;5.90;5.40;;;23.40;99.90;;;;;;4961333;28;20554;-70
2023/06/20 06:30:59;;;;;;;5.50;5.00;;;23.50;99.90;;;;;;4962353;28;20474;-69
2023/06/20 06:33:25;;;;;;;5.00;4.60;;;23.60;99.90;;;;;;4963262;28;20458;-67
2023/06/20 06:35:51;;;;;;;5.63;4.80;;;23.60;99.90;;;;;;4961754;28;20977;-67
2023/06/20 06:38:17;;;;;;;5.23;4.70;;;23.70;99.90;;;;;;4953464;28;20546;-66
2023/06/20 06:40:46;;;;;;;5.83;5.23;;;23.80;99.90;;;;;;4961801;28;21261;-66
2023/06/20 06:43:11;;;;;;;7.77;5.23;;;23.90;99.90;;;;;;4958604;28;20816;-66
2023/06/20 06:45:37;;;;;;;5.20;4.80;;;23.90;99.90;;;;;;4964156;28;20436;-69
2023/06/20 06:48:03;;;;;;;6.07;5.30;;;24.00;99.90;;;;;;4962552;28;20189;-66
2023/06/20 06:50:29;;;;;;;5.40;4.90;;;24.10;99.90;;;;;;4961685;28;20961;-66
2023/06/20 06:52:54;;;;;;;9.10;5.60;;;24.20;99.90;;;;;;4958119;28;20563;-65
2023/06/20 06:55:20;;;;;;;6.30;5.70;;;24.30;99.90;;;;;;4955335;28;20192;-65
2023/06/20 06:57:45;;;;;;;5.17;4.77;;;24.50;99.90;;;;;;4954812;28;20214;-66
2023/06/20 07:00:14;;;;;;;6.60;5.27;;;24.60;99.90;;;;;;4960917;28;20257;-67
2023/06/20 07:02:40;;;;;;;5.50;5.00;;;24.90;99.90;;;;;;4961711;28;20237;-67
2023/06/20 07:05:06;;;;;;;6.63;5.10;;;25.40;99.90;;;;;;4963558;28;20455;-68
2023/06/20 07:07:32;;;;;;;5.33;4.90;;;26.80;99.60;;;;;;4961080;28;20883;-68
2023/06/20 07:09:58;;;;;;;5.60;5.20;;;28.40;95.60;;;;;;4962552;28;20482;-68
2023/06/20 07:12:23;;;;;;;5.47;4.80;;;29.60;92.00;;;;;;4961524;28;20219;-68
2023/06/20 07:14:50;;;;;;;5.13;4.73;;;30.80;89.40;;;;;;4961603;28;20307;-68
2023/06/20 07:17:16;;;;;;;5.70;5.20;;;31.90;83.50;;;;;;4960134;28;20212;-69
2023/06/20 07:19:43;;;;;;;6.27;5.13;;;32.90;80.20;;;;;;4964818;28;20448;-69
2023/06/20 07:22:09;;;;;;;6.93;6.33;;;33.80;76.30;;;;;;4959370;28;20747;-69
2023/06/20 07:24:35;;;;;;;5.00;4.60;;;34.70;71.30;;;;;;4961117;28;20460;-70
2023/06/20 07:27:00;;;;;;;5.40;4.93;;;35.50;67.00;;;;;;4959488;28;20224;-70
2023/06/20 07:29:26;;;;;;;6.90;5.70;;;35.90;65.20;;;;;;4965480;28;20189;-71
2023/06/20 07:31:52;;;;;;;6.27;5.47;;;36.10;64.10;;;;;;4962266;28;20696;-67
2023/06/20 07:34:17;;;;;;;5.57;5.17;;;36.30;62.00;;;;;;4960032;28;20189;-67
2023/06/20 07:36:43;;;;;;;5.20;4.70;;;36.70;59.80;;;;;;4962750;28;20670;-67
2023/06/20 07:39:08;;;;;;;6.10;5.60;;;36.90;58.90;;;;;;4958988;28;20223;-67
2023/06/20 07:41:34;;;;;;;5.77;5.17;;;37.30;57.70;;;;;;4962227;28;20231;-66
2023/06/20 07:44:00;;;;;;;5.63;5.23;;;37.10;57.40;;;;;;4962496;28;20196;-67
2023/06/20 07:46:25;;;;;;;5.90;5.47;;;36.90;56.90;;;;;;4958379;28;20638;-70
2023/06/20 07:48:51;;;;;;;6.00;5.40;;;36.50;57.30;;;;;;4962225;28;20215;-68
2023/06/20 07:51:16;;;;;;;6.03;5.53;;;36.20;58.10;;;;;;4960504;28;20284;-71
2023/06/20 07:53:42;;;;;;;6.90;6.20;;;35.60;58.90;;;;;;4960111;28;20293;-67
2023/06/20 07:56:08;;;;;;;6.63;5.80;;;35.50;59.70;;;;;;4959895;28;20213;-68
2023/06/20 07:58:33;;;;;;;6.03;5.53;;;35.50;59.50;;;;;;4959924;28;20480;-68
2023/06/20 08:01:00;;;;;;;5.43;5.07;;;36.10;58.50;;;;;;4960965;28;20239;-68
2023/06/20 08:03:26;;;;;;;6.37;5.80;;;36.60;58.00;;;;;;4954825;28;20452;-68
2023/06/20 08:05:52;;;;;;;6.70;6.10;;;36.20;57.70;;;;;;4962808;28;20509;-70
2023/06/20 08:08:18;;;;;;;6.07;5.33;;;36.40;57.20;;;;;;4960248;28;22121;-71
2023/06/20 08:10:44;;;;;;;6.33;5.80;;;36.20;57.50;;;;;;4958949;28;20254;-68
2023/06/20 08:13:09;;;;;;;5.50;5.10;;;35.60;57.60;;;;;;4958572;28;20561;-69
2023/06/20 08:15:35;;;;;;;6.13;5.53;;;35.70;57.60;;;;;;4955345;28;20192;-68
2023/06/20 08:18:00;;;;;;;6.00;5.50;;;35.50;57.90;;;;;;4961049;28;20692;-71
2023/06/20 08:20:26;;;;;;;6.90;5.80;;;36.10;57.10;;;;;;4962444;28;20513;-70
2023/06/20 08:22:51;;;;;;;7.80;6.73;;;36.20;57.40;;;;;;4958072;28;20183;-70
2023/06/20 08:25:17;;;;;;;6.10;5.60;;;36.60;56.50;;;;;;4962559;28;20212;-70
2023/06/20 08:27:43;;;;;;;7.33;6.60;;;36.60;55.70;;;;;;4957946;28;20189;-68
2023/06/20 08:30:09;;;;;;;6.00;5.50;;;36.30;56.00;;;;;;4958609;28;20185;-69
2023/06/20 08:32:36;;;;;;;6.93;6.43;;;36.20;56.40;;;;;;4959142;28;20280;-67
2023/06/20 08:35:02;;;;;;;6.90;6.20;;;36.70;55.70;;;;;;4962393;28;20440;-69
2023/06/20 08:37:28;;;;;;;6.70;6.20;;;37.80;53.80;;;;;;4960664;28;20968;-69
2023/06/20 08:39:53;;;;;;;6.60;6.00;;;37.90;53.10;;;;;;4959320;28;20617;-68
2023/06/20 08:42:19;;;;;;;6.00;5.50;;;38.30;52.10;;;;;;4957515;28;20235;-69
2023/06/20 08:44:45;;;;;;;6.20;5.63;;;39.00;50.60;;;;;;4958260;28;20180;-70
2023/06/20 08:47:11;;;;;;;5.90;5.43;;;39.80;49.20;;;;;;4958764;28;20488;-67
2023/06/20 08:49:36;;;;;;;7.07;6.17;;;39.60;48.50;;;;;;4959821;28;21463;-69
2023/06/20 08:52:08;;;;;;;6.70;6.10;;;40.10;48.00;;;;;;4956621;28;20213;-68
2023/06/20 08:54:38;;;;;;;7.47;6.77;;;40.50;46.80;;;;;;4961647;28;20407;-71
2023/06/20 08:57:06;;;;;;;7.30;6.70;;;40.10;47.30;;;;;;4958455;28;20580;-67
2023/06/20 08:59:33;;;;;;;6.20;5.70;;;40.90;46.40;;;;;;4961591;28;20486;-72
2023/06/20 09:01:58;;;;;;;9.43;7.40;;;41.80;44.60;;;;;;4961107;28;20464;-67
2023/06/20 09:04:27;;;;;;;6.53;6.03;;;41.90;43.60;;;;;;4957548;28;20443;-68
2023/06/20 09:06:53;;;;;;;8.47;7.77;;;42.20;42.60;;;;;;4960986;28;20262;-68
2023/06/20 09:09:18;;;;;;;7.63;6.90;;;42.40;41.60;;;;;;4960735;28;21065;-68
2023/06/20 09:11:52;;;;;;;6.03;5.60;;;42.30;41.30;;;;;;4957007;28;20943;-68
2023/06/20 09:14:18;;;;;;;9.30;8.37;;;41.90;42.00;;;;;;4960719;28;20296;-72
2023/06/20 09:16:47;;;;;;;6.67;6.17;;;41.90;41.50;;;;;;4963306;28;20596;-72
2023/06/20 09:19:12;;;;;;;6.57;5.93;;;42.50;41.80;;;;;;4963973;28;20458;-72
2023/06/20 09:21:39;;;;;;;6.77;6.23;;;42.50;40.60;;;;;;4960425;28;20844;-72
2023/06/20 09:24:06;;;;;;;6.30;5.90;;;42.70;40.40;;;;;;4954796;28;20721;-71
2023/06/20 09:26:32;;;;;;;6.57;6.07;;;42.90;40.00;;;;;;4965428;28;20521;-71
2023/06/20 09:29:27;;;;;;;8.10;6.13;;;43.10;38.70;;;;;;4959043;28;20466;-70
2023/06/20 09:31:52;;;;;;;6.60;6.00;;;43.30;38.80;;;;;;4954876;28;20466;-71
2023/06/20 09:34:19;;;;;;;5.90;5.40;;;43.30;38.20;;;;;;4958487;28;20448;-70
2023/06/20 09:36:48;;;;;;;6.97;6.47;;;42.20;38.90;;;;;;4959161;28;20216;-71
2023/06/20 09:39:21;;;;;;;6.67;5.90;;;42.80;39.30;;;;;;4959855;28;20439;-71
2023/06/20 09:41:49;;;;;;;6.60;5.83;;;42.90;38.00;;;;;;4958730;28;20496;-71
2023/06/20 09:44:16;;;;;;;6.67;6.20;;;43.40;37.10;;;;;;4963024;28;20855;-72
2023/06/20 09:46:42;;;;;;;6.67;5.97;;;43.70;36.60;;;;;;4956712;28;20443;-73
2023/06/20 09:49:10;;;;;;;9.00;8.20;;;43.30;36.30;;;;;;4958954;28;20871;-72
2023/06/20 09:51:48;;;;;;;6.17;5.70;;;42.60;36.70;;;;;;4954550;28;20213;-72
2023/06/20 09:54:18;;;;;;;7.20;6.50;;;42.70;36.40;;;;;;4961183;28;20809;-72
2023/06/20 09:56:50;;;;;;;6.20;5.70;;;42.90;36.10;;;;;;4959913;28;20558;-73
2023/06/20 09:59:16;;;;;;;6.47;5.97;;;43.50;35.70;;;;;;4962707;28;20910;-69
2023/06/20 10:01:42;;;;;;;6.30;5.83;;;42.40;36.10;;;;;;4957979;28;20492;-69
2023/06/20 10:04:10;;;;;;;6.20;5.70;;;43.10;36.10;;;;;;4961546;28;20444;-68
2023/06/20 10:06:39;;;;;;;6.17;5.63;;;43.00;35.20;;;;;;4959010;28;21344;-70
2023/06/20 10:09:08;;;;;;;6.17;5.77;;;43.00;35.10;;;;;;4957859;28;20555;-70
2023/06/20 10:11:39;;;;;;;6.70;6.20;;;43.20;35.00;;;;;;4958817;28;20463;-70
2023/06/20 10:14:09;;;;;;;6.73;5.87;;;43.90;34.60;;;;;;4956123;28;20456;-68
2023/06/20 10:16:38;;;;;;;6.10;5.50;;;43.80;34.00;;;;;;4956743;28;20518;-68
2023/06/20 10:19:17;;;;;;;6.17;5.67;;;42.50;34.70;;;;;;4957790;28;20458;-68
2023/06/20 10:21:59;;;;;;;7.10;6.50;;;42.80;34.80;;;;;;4956711;28;20872;-69
2023/06/20 10:24:29;;;;;;;6.60;6.07;;;43.20;35.20;;;;;;4958196;28;20877;-69
2023/06/20 10:26:59;;;;;;;6.03;5.50;;;42.90;34.10;;;;;;4959929;28;20999;-69
2023/06/20 10:29:26;;;;;;;5.67;5.27;;;42.70;34.30;;;;;;4956041;28;20783;-68
2023/06/20 10:32:06;;;;;;;6.40;5.63;;;42.30;34.10;;;;;;4958292;28;20474;-68
2023/06/20 10:34:39;;;;;;;6.07;5.53;;;40.90;35.30;;;;;;4956693;28;20457;-68
2023/06/20 10:37:43;;;;;;;6.60;5.93;;;40.70;36.30;;;;;;4956626;28;20470;-68
2023/06/20 10:40:28;;;;;;;6.53;5.90;;;40.90;36.20;;;;;;4960204;28;20495;-68
2023/06/20 10:42:54;;;;;;;7.23;6.73;;;40.20;35.00;;;;;;4959495;28;20468;-68
2023/06/20 10:45:25;;;;;;;6.53;6.00;;;40.20;35.20;;;;;;4955696;28;20497;-69
2023/06/20 10:47:51;;;;;;;6.40;5.90;;;40.30;34.90;;;;;;4957938;28;20185;-69
2023/06/20 10:50:17;;;;;;;5.43;5.00;;;40.80;35.20;;;;;;4962609;28;20451;-69
2023/06/20 10:52:43;;;;;;;5.60;5.20;;;41.70;33.20;;;;;;4960359;28;20503;-68
2023/06/20 10:55:13;;;;;;;6.90;5.80;;;42.00;33.50;;;;;;4955746;28;20866;-68
2023/06/20 10:57:49;;;;;;;7.53;6.17;;;42.30;33.10;;;;;;4957984;28;20480;-70
2023/06/20 11:00:19;;;;;;;6.87;6.37;;;41.60;33.90;;;;;;4961070;28;20455;-69
2023/06/20 11:02:48;;;;;;;5.90;5.33;;;41.50;34.30;;;;;;4949238;28;21001;-69
2023/06/20 11:05:14;;;;;;;6.10;5.53;;;41.90;33.80;;;;;;4960432;28;20850;-67
2023/06/20 11:08:08;;;;;;;6.20;5.40;;;41.80;33.40;;;;;;4956743;28;20542;-74
2023/06/20 11:10:37;;;;;;;5.80;5.40;;;41.70;33.60;;;;;;4960708;28;20495;-70
2023/06/20 11:13:04;;;;;;;6.80;6.07;;;41.10;34.20;;;;;;4958575;28;20447;-71
2023/06/20 11:15:36;;;;;;;6.30;5.80;;;40.90;34.40;;;;;;4961446;28;20959;-72
2023/06/20 11:18:11;;;;;;;6.73;6.10;;;41.00;34.00;;;;;;4955170;28;20508;-71
2023/06/20 11:20:41;;;;;;;5.97;5.47;;;40.80;33.90;;;;;;4965417;28;20491;-69
2023/06/20 11:23:12;;;;;;;6.10;5.70;;;41.60;32.70;;;;;;4961427;28;20440;-69
2023/06/20 11:25:39;;;;;;;7.23;5.70;;;41.40;31.20;;;;;;4956997;28;20483;-69
2023/06/20 11:28:10;;;;;;;5.30;5.00;;;41.40;31.90;;;;;;4963026;28;20830;-70
2023/06/20 11:30:47;;;;;;;6.10;5.50;;;40.30;32.00;;;;;;4959541;28;21058;-72
2023/06/20 11:33:16;;;;;;;7.60;6.30;;;40.50;32.80;;;;;;4957010;28;20451;-68
2023/06/20 11:35:56;;;;;;;6.37;5.70;;;40.50;33.20;;;;;;4956004;28;20458;-67
2023/06/20 11:38:23;;;;;;;6.77;6.07;;;39.20;34.50;;;;;;4954405;28;20510;-67
2023/06/20 11:41:06;;;;;;;9.33;7.47;;;38.60;35.10;;;;;;4952499;28;21312;-67
2023/06/20 11:43:42;;;;;;;6.23;5.73;;;38.60;35.80;;;;;;4957312;28;20443;-66
2023/06/20 11:46:09;;;;;;;7.20;6.10;;;38.20;36.20;;;;;;4958527;28;20451;-67
2023/06/20 11:48:36;;;;;;;7.13;5.73;;;37.70;36.90;;;;;;4962162;28;20961;-69
2023/06/20 11:51:06;;;;;;;7.17;5.80;;;37.70;37.60;;;;;;4960002;28;21367;-69
2023/06/20 11:53:36;;;;;;;7.40;6.43;;;37.50;38.50;;;;;;4957555;28;20888;-68
2023/06/20 11:56:07;;;;;;;6.77;6.17;;;37.10;38.70;;;;;;4962318;28;20471;-69
2023/06/20 11:58:43;;;;;;;7.10;6.47;;;36.80;39.60;;;;;;4960181;28;20567;-70
2023/06/20 12:01:09;;;;;;;7.67;6.87;;;35.90;40.60;;;;;;4962321;28;21055;-71
2023/06/20 12:03:38;;;;;;;7.23;6.57;;;35.60;41.50;;;;;;4965540;28;20847;-67
2023/06/20 12:06:24;;;;;;;8.73;6.00;;;35.50;42.20;;;;;;4965618;28;20779;-69
2023/06/20 12:08:55;;;;;;;6.87;6.37;;;35.30;42.10;;;;;;4949971;28;20964;-68
2023/06/20 12:11:21;;;;;;;8.97;6.57;;;34.90;42.80;;;;;;4965246;28;20475;-66
2023/06/20 12:13:47;;;;;;;7.00;6.10;;;34.90;43.50;;;;;;4959300;28;20463;-66
2023/06/20 12:16:13;;;;;;;7.20;5.90;;;34.70;43.80;;;;;;4963012;28;20243;-65
2023/06/20 12:18:39;;;;;;;6.50;5.17;;;34.40;43.90;;;;;;4963187;28;20452;-65
2023/06/20 12:21:05;;;;;;;6.40;5.70;;;34.20;44.10;;;;;;4961887;28;20807;-64
2023/06/20 12:23:31;;;;;;;8.87;6.80;;;34.30;44.40;;;;;;4960680;28;20297;-68
2023/06/20 12:25:57;;;;;;;6.23;5.63;;;34.10;45.00;;;;;;4964206;28;20508;-67
2023/06/20 12:28:23;;;;;;;6.73;6.10;;;34.10;45.30;;;;;;4958353;28;20499;-68
2023/06/20 12:30:49;;;;;;;6.87;6.17;;;34.00;44.60;;;;;;4963495;28;20510;-66
2023/06/20 12:33:14;;;;;;;7.60;6.30;;;33.90;44.60;;;;;;4957776;28;20215;-66
2023/06/20 12:35:41;;;;;;;6.80;6.10;;;33.90;44.70;;;;;;4960654;28;20185;-69
2023/06/20 12:38:07;;;;;;;7.20;6.10;;;34.00;44.70;;;;;;4963802;28;20216;-66
2023/06/20 12:40:32;;;;;;;6.83;6.03;;;33.80;44.40;;;;;;4962030;28;20474;-67
2023/06/20 12:42:58;;;;;;;7.53;6.80;;;33.80;45.00;;;;;;4963102;28;20550;-69
2023/06/20 12:45:24;;;;;;;8.20;7.40;;;33.70;45.50;;;;;;4962502;28;20675;-67
2023/06/20 12:47:49;;;;;;;6.73;6.13;;;33.70;45.60;;;;;;4963265;28;20638;-69
2023/06/20 12:50:15;;;;;;;9.97;6.97;;;33.90;45.20;;;;;;4964174;28;20193;-68
2023/06/20 12:52:40;;;;;;;7.40;6.70;;;33.80;45.50;;;;;;4951867;28;20259;-66
2023/06/20 12:55:07;;;;;;;8.17;7.23;;;33.80;45.50;;;;;;4959823;28;20200;-69
2023/06/20 12:57:33;;;;;;;11.07;6.73;;;33.70;45.70;;;;;;4961620;28;20224;-70